createdAt,value
2017-06-14T07:32:42.855Z,135
2017-06-14T07:33:16.556Z,135
2017-06-14T07:35:10.383Z,135
2017-06-14T07:35:44.116Z,135
2017-06-14T07:37:36.670Z,135
2017-06-14T07:38:08.945Z,140
2017-06-14T07:38:41.229Z,135
2017-06-14T07:39:13.512Z,140
2017-06-14T07:39:45.789Z,140
2017-06-14T07:40:18.069Z,140
2017-06-14T07:40:50.352Z,140
2017-06-14T07:41:22.614Z,140
2017-06-14T07:41:54.887Z,140
2017-06-14T07:42:27.138Z,140
2017-06-14T07:42:59.415Z,140
2017-06-14T07:43:31.700Z,135
2017-06-14T07:44:03.984Z,135
2017-06-14T07:44:36.266Z,140
2017-06-14T07:45:08.544Z,140
2017-06-14T07:45:40.819Z,135
2017-06-14T07:46:13.101Z,130
2017-06-14T07:46:49.226Z,130
2017-06-14T07:47:21.499Z,130
2017-06-14T07:47:53.777Z,125
2017-06-14T07:48:26.062Z,130
2017-06-14T07:48:58.361Z,135
2017-06-14T07:49:30.631Z,135
2017-06-14T07:50:02.920Z,135
2017-06-14T07:50:35.215Z,135
2017-06-14T07:51:07.482Z,135
2017-06-14T07:51:39.767Z,135
2017-06-14T07:52:12.068Z,135
2017-06-14T07:52:44.322Z,135
2017-06-14T07:53:16.574Z,135
2017-06-14T07:53:48.849Z,135
2017-06-14T07:54:22.071Z,135
2017-06-14T07:54:55.111Z,130
2017-06-14T07:55:27.419Z,135
2017-06-14T07:56:01.748Z,135
2017-06-14T07:56:36.720Z,130
2017-06-14T07:57:10.148Z,135
2017-06-14T07:57:42.502Z,130
2017-06-14T07:58:17.280Z,135
2017-06-14T07:58:50.053Z,130
2017-06-14T07:59:22.368Z,130
2017-06-14T07:59:58.770Z,130
2017-06-14T08:00:33.231Z,130
2017-06-14T08:01:07.235Z,130
2017-06-14T08:01:43.076Z,125
2017-06-14T08:02:16.926Z,125
2017-06-14T08:02:49.951Z,120
2017-06-14T08:04:41.804Z,120
2017-06-14T08:05:14.170Z,120
2017-06-14T08:07:05.664Z,130
2017-06-14T08:07:37.948Z,130
2017-06-14T08:08:10.225Z,130
2017-06-14T08:10:02.047Z,125
2017-06-14T08:11:54.276Z,125
2017-06-14T08:13:46.189Z,120
2017-06-14T08:16:57.353Z,125
2017-06-14T08:17:29.170Z,120
2017-06-14T08:18:01.558Z,90
2017-06-14T08:21:12.943Z,120
2017-06-14T08:21:45.210Z,115
2017-06-14T08:22:17.471Z,120
2017-06-14T08:22:49.757Z,115
2017-06-14T08:23:22.026Z,115
2017-06-14T08:25:13.854Z,115
2017-06-14T08:25:46.138Z,115
2017-06-14T08:26:18.423Z,115
2017-06-14T08:26:50.700Z,115
2017-06-14T08:27:22.994Z,115
2017-06-14T08:27:55.258Z,115
2017-06-14T08:28:27.525Z,115
2017-06-14T08:28:59.772Z,115
2017-06-14T08:29:32.047Z,115
2017-06-14T08:30:04.317Z,115
2017-06-14T08:30:36.584Z,115
2017-06-14T08:31:08.865Z,115
2017-06-14T08:31:41.233Z,115
2017-06-14T08:32:13.520Z,115
2017-06-14T08:32:45.913Z,115
2017-06-14T08:33:18.188Z,115
2017-06-14T08:33:50.473Z,115
2017-06-14T08:34:22.750Z,115
2017-06-14T08:34:55.011Z,115
2017-06-14T08:35:27.275Z,110
2017-06-14T08:35:59.760Z,110
2017-06-14T08:36:32.035Z,110
2017-06-14T08:37:04.360Z,110
2017-06-14T08:37:36.617Z,110
2017-06-14T08:38:08.905Z,110
2017-06-14T08:38:41.173Z,110
2017-06-14T08:39:13.432Z,110
2017-06-14T08:39:45.713Z,110
2017-06-14T08:40:17.988Z,110
2017-06-14T08:40:50.258Z,110
2017-06-14T08:41:22.545Z,110
2017-06-14T08:41:54.823Z,110
2017-06-14T08:42:27.148Z,110
2017-06-14T08:43:00.226Z,110
2017-06-14T08:43:32.493Z,110
2017-06-14T08:44:04.755Z,110
2017-06-14T08:44:37.031Z,110
2017-06-14T08:45:09.365Z,110
2017-06-14T08:45:41.665Z,110
2017-06-14T08:46:13.952Z,110
2017-06-14T08:46:46.221Z,110
2017-06-14T08:47:18.521Z,110
2017-06-14T08:47:50.808Z,110
2017-06-14T08:48:23.151Z,110
2017-06-14T08:48:56.294Z,110
2017-06-14T08:49:28.588Z,110
2017-06-14T08:50:03.446Z,110
2017-06-14T08:50:38.164Z,110
2017-06-14T08:51:10.533Z,110
2017-06-14T08:51:42.802Z,110
2017-06-14T08:52:15.052Z,105
2017-06-14T08:52:47.340Z,105
2017-06-14T08:53:19.600Z,105
2017-06-14T08:53:51.875Z,105
2017-06-14T08:54:24.147Z,105
2017-06-14T08:54:56.418Z,105
2017-06-14T08:55:28.706Z,105
2017-06-14T08:56:00.975Z,105
2017-06-14T08:56:33.265Z,105
2017-06-14T08:57:05.549Z,105
2017-06-14T08:57:37.830Z,105
2017-06-14T08:58:10.108Z,105
2017-06-14T08:58:42.401Z,105
2017-06-14T08:59:14.681Z,105
2017-06-14T08:59:46.963Z,105
2017-06-14T09:00:19.262Z,105
2017-06-14T09:00:51.562Z,105
2017-06-14T09:01:23.830Z,105
2017-06-14T09:01:56.113Z,105
2017-06-14T09:03:48.587Z,105
2017-06-14T09:04:21.272Z,105
2017-06-14T09:04:54.268Z,105
2017-06-14T09:05:27.359Z,105
2017-06-14T09:06:01.256Z,105
2017-06-14T09:06:34.068Z,105
2017-06-14T09:07:07.158Z,105
2017-06-14T09:07:40.695Z,105
2017-06-14T09:08:13.772Z,105
2017-06-14T09:08:46.803Z,105
2017-06-14T09:09:19.617Z,105
2017-06-14T09:09:53.114Z,105
2017-06-14T09:10:27.037Z,105
2017-06-14T09:10:59.880Z,105
2017-06-14T09:11:32.289Z,105
2017-06-14T09:12:04.549Z,105
2017-06-14T09:12:36.819Z,105
2017-06-14T09:13:09.111Z,105
2017-06-14T09:13:41.382Z,105
2017-06-14T09:14:13.662Z,105
2017-06-14T09:14:46.140Z,105
2017-06-14T09:15:18.405Z,105
2017-06-14T09:15:50.681Z,105
2017-06-14T09:16:22.951Z,105
2017-06-14T09:16:55.225Z,105
2017-06-14T09:17:27.496Z,105
2017-06-14T09:17:59.770Z,105
2017-06-14T09:18:32.042Z,105
2017-06-14T09:19:04.681Z,105
2017-06-14T09:19:36.946Z,105
2017-06-14T09:20:09.212Z,105
2017-06-14T09:20:41.497Z,105
2017-06-14T09:21:13.804Z,105
2017-06-14T09:21:46.084Z,105
2017-06-14T09:22:18.376Z,105
2017-06-14T09:22:53.215Z,105
2017-06-14T09:23:25.496Z,105
2017-06-14T09:23:57.786Z,105
2017-06-14T09:24:30.059Z,105
2017-06-14T09:25:02.345Z,105
2017-06-14T09:25:35.417Z,105
2017-06-14T09:27:27.213Z,105
2017-06-14T09:27:59.511Z,105
2017-06-14T09:28:31.800Z,105
2017-06-14T09:29:04.069Z,100
2017-06-14T09:29:36.342Z,100
2017-06-14T09:30:08.623Z,105
2017-06-14T09:30:40.902Z,105
2017-06-14T09:31:13.182Z,105
2017-06-14T09:31:45.497Z,105
2017-06-14T09:32:17.784Z,105
2017-06-14T09:32:50.065Z,100
2017-06-14T09:33:22.344Z,100
2017-06-14T09:33:54.612Z,100
2017-06-14T09:34:26.873Z,100
2017-06-14T09:34:59.138Z,100
2017-06-14T09:35:31.403Z,100
2017-06-14T09:36:04.288Z,100
2017-06-14T09:36:36.593Z,105
2017-06-14T09:37:08.863Z,100
2017-06-14T09:37:41.161Z,100
2017-06-14T09:38:13.473Z,100
2017-06-14T09:38:45.763Z,100
2017-06-14T09:39:18.017Z,100
2017-06-14T09:39:50.292Z,100
2017-06-14T09:40:22.563Z,100
2017-06-14T09:40:54.843Z,100
2017-06-14T09:41:27.110Z,100
2017-06-14T09:41:59.406Z,100
2017-06-14T09:42:31.697Z,100
2017-06-14T09:43:03.989Z,100
2017-06-14T09:43:36.299Z,100
2017-06-14T09:44:08.597Z,100
2017-06-14T09:44:40.873Z,100
2017-06-14T09:45:13.158Z,100
2017-06-14T09:45:45.441Z,100
2017-06-14T09:46:17.729Z,100
2017-06-14T09:46:50.015Z,105
2017-06-14T09:47:22.295Z,105
2017-06-14T09:47:54.582Z,105
2017-06-14T09:48:26.865Z,105
2017-06-14T09:48:59.144Z,105
2017-06-14T09:49:31.412Z,105
2017-06-14T09:50:03.697Z,105
2017-06-14T09:50:35.987Z,105
2017-06-14T09:51:08.273Z,105
2017-06-14T09:51:40.571Z,105
2017-06-14T09:52:12.836Z,105
2017-06-14T09:52:45.103Z,105
2017-06-14T09:53:17.375Z,105
2017-06-14T09:53:50.281Z,105
2017-06-14T09:54:22.544Z,105
2017-06-14T09:54:54.837Z,105
2017-06-14T09:55:27.103Z,105
2017-06-14T09:56:03.468Z,105
2017-06-14T09:56:35.734Z,105
2017-06-14T09:57:07.993Z,105
2017-06-14T09:57:40.270Z,105
2017-06-14T09:58:12.525Z,105
2017-06-14T09:58:45.305Z,105
2017-06-14T09:59:18.256Z,110
2017-06-14T09:59:52.158Z,105
2017-06-14T10:00:24.446Z,105
2017-06-14T10:00:57.329Z,105
2017-06-14T10:01:30.300Z,110
2017-06-14T10:02:04.398Z,110
2017-06-14T10:02:37.214Z,110
2017-06-14T10:03:10.291Z,110
2017-06-14T10:03:43.792Z,110
2017-06-14T10:04:16.081Z,110
2017-06-14T10:04:48.438Z,110
2017-06-14T10:05:21.950Z,110
2017-06-14T10:05:54.344Z,110
2017-06-14T10:06:26.621Z,110
2017-06-14T10:06:58.899Z,110
2017-06-14T10:07:31.178Z,110
2017-06-14T10:08:03.439Z,110
2017-06-14T10:08:35.702Z,110
2017-06-14T10:09:07.989Z,110
2017-06-14T10:09:41.178Z,110
2017-06-14T10:10:13.473Z,110
2017-06-14T10:10:45.737Z,110
2017-06-14T10:11:18.719Z,110
2017-06-14T10:11:51.022Z,110
2017-06-14T10:12:24.244Z,110
2017-06-14T10:12:57.186Z,110
2017-06-14T10:13:31.196Z,115
2017-06-14T10:14:04.096Z,115
2017-06-14T10:15:56.998Z,115
2017-06-14T10:16:32.925Z,115
2017-06-14T10:17:07.156Z,115
2017-06-14T10:17:44.952Z,115
2017-06-14T10:18:21.585Z,115
2017-06-14T10:18:56.745Z,115
2017-06-14T10:19:32.188Z,115
2017-06-14T10:21:25.813Z,115
2017-06-14T10:22:00.833Z,120
2017-06-14T10:22:36.305Z,120
2017-06-14T10:23:09.874Z,120
2017-06-14T10:23:43.314Z,120
2017-06-14T10:24:15.639Z,120
2017-06-14T10:24:47.931Z,120
2017-06-14T10:25:20.211Z,120
2017-06-14T10:25:52.582Z,120
2017-06-14T10:26:25.411Z,120
2017-06-14T10:26:57.706Z,125
2017-06-14T10:27:31.219Z,125
2017-06-14T10:28:03.506Z,125
2017-06-14T10:28:36.703Z,125
2017-06-14T10:29:08.948Z,125
2017-06-14T10:29:41.786Z,125
2017-06-14T10:30:14.069Z,125
2017-06-14T10:30:46.352Z,125
2017-06-14T10:31:18.753Z,130
2017-06-14T10:31:51.030Z,125
2017-06-14T10:32:23.298Z,125
2017-06-14T10:32:55.561Z,130
2017-06-14T10:33:27.831Z,130
2017-06-14T10:34:00.714Z,130
2017-06-14T10:34:32.976Z,130
2017-06-14T10:35:05.232Z,130
2017-06-14T10:35:37.497Z,135
2017-06-14T10:36:09.773Z,130
2017-06-14T10:36:42.079Z,130
2017-06-14T10:37:14.350Z,125
2017-06-14T10:37:46.602Z,125
2017-06-14T10:38:18.878Z,125
2017-06-14T10:38:51.162Z,135
2017-06-14T10:39:23.428Z,135
2017-06-14T10:39:55.690Z,135
2017-06-14T10:40:27.942Z,135
2017-06-14T10:41:00.197Z,140
2017-06-14T10:41:33.281Z,140
2017-06-14T10:42:06.346Z,140
2017-06-14T10:42:38.610Z,140
2017-06-14T10:43:10.883Z,140
2017-06-14T10:43:43.166Z,140
2017-06-14T10:44:15.463Z,140
2017-06-14T10:44:47.743Z,140
2017-06-14T10:45:20.024Z,140
2017-06-14T10:45:52.307Z,145
2017-06-14T10:46:24.587Z,140
2017-06-14T10:46:57.086Z,140
2017-06-14T10:47:29.376Z,140
2017-06-14T10:49:21.338Z,145
2017-06-14T10:49:53.624Z,145
2017-06-14T10:50:25.910Z,150
2017-06-14T10:50:58.208Z,150
2017-06-14T10:51:30.534Z,150
2017-06-14T10:52:02.806Z,145
2017-06-14T10:52:35.113Z,150
2017-06-14T10:53:07.372Z,155
2017-06-14T10:53:39.629Z,155
2017-06-14T10:54:12.714Z,155
2017-06-14T10:54:44.951Z,155
2017-06-14T10:55:17.816Z,160
2017-06-14T10:55:51.265Z,160
2017-06-14T10:56:23.518Z,160
2017-06-14T10:56:55.784Z,160
2017-06-14T10:57:28.051Z,160
2017-06-14T10:58:00.308Z,160
2017-06-14T10:58:32.546Z,165
2017-06-14T10:59:04.808Z,165
2017-06-14T10:59:37.756Z,165
2017-06-14T11:00:10.006Z,165
2017-06-14T11:00:42.892Z,170
2017-06-14T11:01:16.262Z,170
2017-06-14T11:01:49.082Z,170
2017-06-14T11:02:22.426Z,170
2017-06-14T11:02:55.902Z,170
2017-06-14T11:03:28.930Z,175
2017-06-14T11:04:01.275Z,170
2017-06-14T11:04:34.254Z,170
2017-06-14T11:05:06.880Z,170
2017-06-14T11:05:39.954Z,170
2017-06-14T11:06:12.525Z,170
2017-06-14T11:06:45.133Z,170
2017-06-14T11:07:17.438Z,175
2017-06-14T11:07:49.720Z,170
2017-06-14T11:08:22.395Z,175
2017-06-14T11:08:55.241Z,175
2017-06-14T11:09:28.308Z,175
2017-06-14T11:10:00.919Z,175
2017-06-14T11:10:33.215Z,175
2017-06-14T11:11:05.488Z,175
2017-06-14T11:11:37.784Z,175
2017-06-14T11:12:10.108Z,170
2017-06-14T11:12:42.461Z,175
2017-06-14T11:13:14.714Z,175
2017-06-14T11:13:47.761Z,175
2017-06-14T11:14:23.355Z,175
2017-06-14T11:14:55.907Z,175
2017-06-14T11:15:28.175Z,175
2017-06-14T11:16:01.347Z,175
2017-06-14T11:16:33.604Z,175
2017-06-14T11:17:07.471Z,180
2017-06-14T11:17:40.023Z,180
2017-06-14T11:18:14.011Z,180
2017-06-14T11:18:46.981Z,175
2017-06-14T11:19:20.890Z,175
2017-06-14T11:19:54.994Z,175
2017-06-14T11:20:27.384Z,175
2017-06-14T11:21:00.318Z,175
2017-06-14T11:21:32.621Z,185
2017-06-14T11:22:05.984Z,185
2017-06-14T11:22:38.322Z,185
2017-06-14T11:23:10.647Z,185
2017-06-14T11:23:43.090Z,185
2017-06-14T11:24:16.375Z,190
2017-06-14T11:24:50.047Z,190
2017-06-14T11:25:22.320Z,190
2017-06-14T11:25:54.950Z,190
2017-06-14T11:26:27.589Z,190
2017-06-14T11:27:00.009Z,190
2017-06-14T11:27:33.238Z,190
2017-06-14T11:28:05.584Z,195
2017-06-14T11:28:38.847Z,195
2017-06-14T11:29:12.402Z,195
2017-06-14T11:29:44.660Z,195
2017-06-14T11:30:16.930Z,195
2017-06-14T11:30:49.184Z,195
2017-06-14T11:31:21.425Z,195
2017-06-14T11:31:53.681Z,200
2017-06-14T11:32:25.928Z,200
2017-06-14T11:32:58.172Z,200
2017-06-14T11:33:30.422Z,205
2017-06-14T11:34:03.452Z,205
2017-06-14T11:34:35.702Z,205
2017-06-14T11:35:07.963Z,205
2017-06-14T11:35:40.217Z,205
2017-06-14T11:36:12.498Z,205
2017-06-14T11:36:44.755Z,205
2017-06-14T11:37:17.009Z,205
2017-06-14T11:37:49.258Z,205
2017-06-14T11:38:21.507Z,205
2017-06-14T11:38:53.747Z,205
2017-06-14T11:39:26.035Z,205
2017-06-14T11:39:58.392Z,205
2017-06-14T11:40:30.683Z,210
2017-06-14T11:41:02.940Z,205
2017-06-14T11:41:35.190Z,205
2017-06-14T11:42:07.446Z,210
2017-06-14T11:42:39.720Z,205
2017-06-14T11:43:11.993Z,210
2017-06-14T11:43:44.284Z,215
2017-06-14T11:44:16.550Z,215
2017-06-14T11:44:48.827Z,215
2017-06-14T11:45:21.106Z,220
2017-06-14T11:45:53.377Z,215
2017-06-14T11:46:25.666Z,225
2017-06-14T11:46:57.953Z,225
2017-06-14T11:47:30.258Z,225
2017-06-14T11:48:02.557Z,225
2017-06-14T11:48:34.856Z,230
2017-06-14T11:49:07.150Z,235
2017-06-14T11:49:39.439Z,235
2017-06-14T11:50:11.723Z,230
2017-06-14T11:50:44.001Z,235
2017-06-14T11:51:16.296Z,235
2017-06-14T11:51:48.589Z,240
2017-06-14T11:52:20.875Z,240
2017-06-14T11:52:53.192Z,245
2017-06-14T11:53:25.482Z,245
2017-06-14T11:53:57.778Z,245
2017-06-14T11:54:30.083Z,250
2017-06-14T11:55:02.369Z,255
2017-06-14T11:55:34.641Z,255
2017-06-14T11:56:06.945Z,255
2017-06-14T11:56:39.233Z,260
2017-06-14T11:57:11.508Z,260
2017-06-14T11:57:43.782Z,260
2017-06-14T11:58:16.074Z,265
2017-06-14T11:58:48.355Z,270
2017-06-14T11:59:20.619Z,270
2017-06-14T11:59:52.898Z,280
2017-06-14T12:00:25.161Z,280
2017-06-14T12:00:57.450Z,280
2017-06-14T12:01:29.743Z,285
2017-06-14T12:02:02.035Z,285
2017-06-14T12:02:34.309Z,280
2017-06-14T12:03:06.554Z,290
2017-06-14T12:03:39.721Z,285
2017-06-14T12:04:11.959Z,290
2017-06-14T12:04:44.233Z,290
2017-06-14T12:05:16.496Z,290
2017-06-14T12:05:48.748Z,290
2017-06-14T12:06:20.998Z,295
2017-06-14T12:06:53.266Z,300
2017-06-14T12:07:25.514Z,305
2017-06-14T12:07:57.859Z,305
2017-06-14T12:08:30.109Z,305
2017-06-14T12:09:02.369Z,305
2017-06-14T12:09:34.615Z,305
2017-06-14T12:10:06.899Z,310
2017-06-14T12:10:39.141Z,315
2017-06-14T12:11:11.399Z,315
2017-06-14T12:11:44.328Z,315
2017-06-14T12:12:16.572Z,320
2017-06-14T12:12:48.854Z,320
2017-06-14T12:13:21.128Z,320
2017-06-14T12:13:53.397Z,325
2017-06-14T12:14:25.686Z,325
2017-06-14T12:14:57.978Z,325
2017-06-14T12:15:30.268Z,325
2017-06-14T12:16:02.601Z,325
2017-06-14T12:16:34.899Z,325
2017-06-14T12:17:08.145Z,330
2017-06-14T12:17:43.853Z,335
2017-06-14T12:18:16.769Z,335
2017-06-14T12:18:49.051Z,335
2017-06-14T12:19:21.345Z,340
2017-06-14T12:19:53.621Z,340
2017-06-14T12:20:25.917Z,345
2017-06-14T12:21:04.791Z,345
2017-06-14T12:21:37.345Z,345
2017-06-14T12:22:09.646Z,345
2017-06-14T12:22:41.930Z,350
2017-06-14T12:23:14.920Z,340
2017-06-14T12:23:47.183Z,340
2017-06-14T12:24:20.332Z,335
2017-06-14T12:24:53.324Z,340
2017-06-14T12:25:25.569Z,340
2017-06-14T12:25:57.818Z,350
2017-06-14T12:26:30.080Z,350
2017-06-14T12:27:02.361Z,355
2017-06-14T12:27:34.637Z,350
2017-06-14T12:28:06.927Z,345
2017-06-14T12:28:39.196Z,360
2017-06-14T12:29:11.458Z,355
2017-06-14T12:29:43.793Z,360
2017-06-14T12:30:16.051Z,370
2017-06-14T12:30:48.957Z,375
2017-06-14T12:31:21.199Z,380
2017-06-14T12:31:53.476Z,380
2017-06-14T12:32:25.756Z,385
2017-06-14T12:32:58.029Z,385
2017-06-14T12:33:30.326Z,380
2017-06-14T12:34:02.629Z,390
2017-06-14T12:34:34.922Z,395
2017-06-14T12:35:07.198Z,400
2017-06-14T12:35:39.515Z,405
2017-06-14T12:36:11.804Z,410
2017-06-14T12:36:44.084Z,410
2017-06-14T12:37:16.369Z,410
2017-06-14T12:37:48.672Z,405
2017-06-14T12:38:20.952Z,420
2017-06-14T12:38:53.268Z,425
2017-06-14T12:39:25.548Z,430
2017-06-14T12:39:57.847Z,435
2017-06-14T12:40:30.118Z,425
2017-06-14T12:41:02.414Z,450
2017-06-14T12:41:34.713Z,445
2017-06-14T12:42:06.996Z,445
2017-06-14T12:42:39.290Z,445
2017-06-14T12:43:11.577Z,455
2017-06-14T12:43:43.869Z,465
2017-06-14T12:44:16.148Z,470
2017-06-14T12:44:48.418Z,470
2017-06-14T12:45:20.704Z,470
2017-06-14T12:45:52.991Z,480
2017-06-14T12:46:25.285Z,485
2017-06-14T12:46:57.566Z,490
2017-06-14T12:47:29.879Z,490
2017-06-14T12:48:02.157Z,500
2017-06-14T12:48:34.453Z,505
2017-06-14T12:49:06.762Z,520
2017-06-14T12:49:39.050Z,515
2017-06-14T12:50:11.343Z,520
2017-06-14T12:50:43.632Z,545
2017-06-14T12:51:15.932Z,535
2017-06-14T12:51:48.239Z,545
2017-06-14T12:52:20.524Z,555
2017-06-14T12:52:52.787Z,560
2017-06-14T12:53:25.051Z,575
2017-06-14T12:53:57.295Z,575
2017-06-14T12:54:29.550Z,575
2017-06-14T12:55:01.893Z,570
2017-06-14T12:55:34.155Z,575
2017-06-14T12:56:06.422Z,580
2017-06-14T12:56:38.706Z,570
2017-06-14T12:57:10.986Z,575
2017-06-14T12:57:43.260Z,600
2017-06-14T12:58:15.607Z,615
2017-06-14T12:58:47.868Z,610
2017-06-14T12:59:20.138Z,615
2017-06-14T12:59:52.398Z,630
2017-06-14T13:00:25.321Z,625
2017-06-14T13:00:57.592Z,620
2017-06-14T13:01:29.862Z,630
2017-06-14T13:02:02.129Z,655
2017-06-14T13:02:34.458Z,660
2017-06-14T13:03:06.712Z,660
2017-06-14T13:03:38.991Z,680
2017-06-14T13:04:11.276Z,690
2017-06-14T13:04:44.319Z,705
2017-06-14T13:05:16.563Z,705
2017-06-14T13:05:48.823Z,700
2017-06-14T13:06:21.052Z,710
2017-06-14T13:06:53.319Z,720
2017-06-14T13:07:25.570Z,705
2017-06-14T13:07:58.428Z,690
2017-06-14T13:08:30.674Z,675
2017-06-14T13:09:02.943Z,670
2017-06-14T13:09:35.801Z,700
2017-06-14T13:10:08.083Z,655
2017-06-14T13:10:40.369Z,710
2017-06-14T13:11:12.624Z,685
2017-06-14T13:11:45.457Z,750
2017-06-14T13:12:17.745Z,735
2017-06-14T13:12:50.052Z,710
2017-06-14T13:13:22.347Z,720
2017-06-14T13:13:54.634Z,740
2017-06-14T13:14:26.919Z,740
2017-06-14T13:14:59.199Z,755
2017-06-14T13:15:31.483Z,755
2017-06-14T13:16:03.779Z,765
2017-06-14T13:16:36.066Z,755
2017-06-14T13:17:08.355Z,755
2017-06-14T13:17:40.646Z,795
2017-06-14T13:18:13.835Z,785
2017-06-14T13:18:46.123Z,790
2017-06-14T13:19:18.402Z,790
2017-06-14T13:19:50.690Z,790
2017-06-14T13:20:22.989Z,805
2017-06-14T13:20:55.280Z,790
2017-06-14T13:21:27.589Z,785
2017-06-14T13:22:00.139Z,770
2017-06-14T13:22:32.818Z,795
2017-06-14T13:23:05.901Z,820
2017-06-14T13:23:38.154Z,815
2017-06-14T13:24:10.404Z,830
2017-06-14T13:24:43.436Z,830
2017-06-14T13:25:15.711Z,840
2017-06-14T13:25:47.940Z,845
2017-06-14T13:26:20.232Z,840
2017-06-14T13:26:52.481Z,860
2017-06-14T13:27:24.729Z,860
2017-06-14T13:27:57.000Z,875
2017-06-14T13:28:29.264Z,870
2017-06-14T13:29:01.568Z,885
2017-06-14T13:29:34.330Z,880
2017-06-14T13:30:06.675Z,885
2017-06-14T13:30:38.951Z,865
2017-06-14T13:31:11.258Z,845
2017-06-14T13:31:43.514Z,845
2017-06-14T13:32:15.793Z,825
2017-06-14T13:32:48.027Z,790
2017-06-14T13:33:20.301Z,875
2017-06-14T13:33:52.554Z,895
2017-06-14T13:34:25.059Z,905
2017-06-14T13:34:57.339Z,930
2017-06-14T13:35:29.599Z,935
2017-06-14T13:36:01.859Z,925
2017-06-14T13:36:34.120Z,935
2017-06-14T13:37:06.959Z,795
2017-06-14T13:37:39.220Z,850
2017-06-14T13:38:11.478Z,880
2017-06-14T13:38:43.737Z,965
2017-06-14T13:39:16.862Z,950
2017-06-14T13:39:49.121Z,950
2017-06-14T13:40:21.965Z,940
2017-06-14T13:40:54.231Z,955
2017-06-14T13:41:26.488Z,950
2017-06-14T13:41:58.757Z,970
2017-06-14T13:42:31.527Z,960
2017-06-14T13:43:03.977Z,950
2017-06-14T13:43:36.237Z,975
2017-06-14T13:44:08.481Z,975
2017-06-14T13:44:40.745Z,970
2017-06-14T13:45:13.003Z,940
2017-06-14T13:45:45.250Z,880
2017-06-14T13:46:18.038Z,890
2017-06-14T13:46:50.310Z,890
2017-06-14T13:47:22.602Z,930
2017-06-14T13:47:54.861Z,935
2017-06-14T13:48:27.963Z,940
2017-06-14T13:49:01.432Z,900
2017-06-14T13:49:33.695Z,905
2017-06-14T13:50:05.939Z,905
2017-06-14T13:50:38.838Z,910
2017-06-14T13:51:11.963Z,985
2017-06-14T13:51:44.855Z,1025
2017-06-14T13:52:17.103Z,1040
2017-06-14T13:52:49.363Z,940
2017-06-14T13:53:22.358Z,965
2017-06-14T13:53:54.604Z,960
2017-06-14T13:54:26.867Z,995
2017-06-14T13:54:59.110Z,970
2017-06-14T13:55:31.353Z,970
2017-06-14T13:56:03.590Z,930
2017-06-14T13:56:35.851Z,905
2017-06-14T13:57:08.126Z,930
2017-06-14T13:57:40.366Z,930
2017-06-14T13:58:12.593Z,985
2017-06-14T13:58:44.845Z,995
2017-06-14T13:59:17.089Z,985
2017-06-14T13:59:49.362Z,955
2017-06-14T14:00:22.495Z,975
2017-06-14T14:00:54.820Z,970
2017-06-14T14:01:27.071Z,905
2017-06-14T14:01:59.330Z,840
2017-06-14T14:02:31.589Z,970
2017-06-14T14:03:03.907Z,960
2017-06-14T14:03:36.181Z,930
2017-06-14T14:04:08.461Z,995
2017-06-14T14:04:40.713Z,985
2017-06-14T14:05:12.977Z,1000
2017-06-14T14:05:45.245Z,985
2017-06-14T14:06:17.495Z,970
2017-06-14T14:06:49.749Z,995
2017-06-14T14:07:21.995Z,1000
2017-06-14T14:07:54.260Z,1000
2017-06-14T14:08:26.520Z,980
2017-06-14T14:08:58.824Z,960
2017-06-14T14:09:31.061Z,955
2017-06-14T14:10:03.417Z,755
2017-06-14T14:10:35.679Z,805
2017-06-14T14:11:07.933Z,970
2017-06-14T14:11:40.235Z,970
2017-06-14T14:12:12.514Z,970
2017-06-14T14:12:44.801Z,965
2017-06-14T14:13:17.102Z,960
2017-06-14T14:13:49.393Z,955
2017-06-14T14:14:21.697Z,955
2017-06-14T14:14:53.989Z,945
2017-06-14T14:15:26.257Z,955
2017-06-14T14:15:58.531Z,950
2017-06-14T14:16:30.815Z,945
2017-06-14T14:17:03.100Z,945
2017-06-14T14:17:35.378Z,940
2017-06-14T14:18:07.661Z,940
2017-06-14T14:18:39.959Z,930
2017-06-14T14:19:12.244Z,935
2017-06-14T14:19:44.533Z,930
2017-06-14T14:20:16.829Z,925
2017-06-14T14:20:49.122Z,910
2017-06-14T14:21:21.414Z,905
2017-06-14T14:21:53.704Z,915
2017-06-14T14:22:26.002Z,900
2017-06-14T14:22:58.273Z,890
2017-06-14T14:23:30.553Z,895
2017-06-14T14:24:02.821Z,890
2017-06-14T14:24:35.089Z,885
2017-06-14T14:25:07.505Z,885
2017-06-14T14:25:39.746Z,885
2017-06-14T14:26:12.493Z,880
2017-06-14T14:26:44.749Z,875
2017-06-14T14:27:16.998Z,865
2017-06-14T14:27:49.254Z,855
2017-06-14T14:28:22.001Z,850
2017-06-14T14:28:54.259Z,845
2017-06-14T14:29:26.521Z,845
2017-06-14T14:29:58.791Z,850
2017-06-14T14:30:31.052Z,835
2017-06-14T14:31:04.011Z,830
2017-06-14T14:31:36.297Z,825
2017-06-14T14:32:08.563Z,820
2017-06-14T14:32:40.858Z,820
2017-06-14T14:33:13.151Z,805
2017-06-14T14:33:45.420Z,800
2017-06-14T14:34:17.718Z,810
2017-06-14T14:34:49.996Z,795
2017-06-14T14:35:22.288Z,810
2017-06-14T14:35:54.579Z,835
2017-06-14T14:36:26.868Z,825
2017-06-14T14:36:59.152Z,820
2017-06-14T14:37:31.456Z,815
2017-06-14T14:38:03.749Z,815
2017-06-14T14:38:36.032Z,815
2017-06-14T14:39:08.334Z,810
2017-06-14T14:39:40.627Z,805
2017-06-14T14:40:12.918Z,800
2017-06-14T14:40:45.225Z,790
2017-06-14T14:41:17.519Z,790
2017-06-14T14:41:49.801Z,790
2017-06-14T14:42:22.086Z,775
2017-06-14T14:42:54.376Z,775
2017-06-14T14:43:26.752Z,765
2017-06-14T14:43:59.083Z,770
2017-06-14T14:44:31.378Z,765
2017-06-14T14:45:03.663Z,760
2017-06-14T14:45:35.949Z,760
2017-06-14T14:46:08.239Z,765
2017-06-14T14:46:40.512Z,765
2017-06-14T14:47:12.803Z,765
2017-06-14T14:47:45.100Z,765
2017-06-14T14:48:17.389Z,765
2017-06-14T14:48:49.685Z,770
2017-06-14T14:49:21.974Z,825
2017-06-14T14:49:54.260Z,925
2017-06-14T14:50:26.558Z,1035
2017-06-14T14:50:58.850Z,1145
2017-06-14T14:51:31.137Z,1270
2017-06-14T14:52:03.433Z,1440
2017-06-14T14:52:35.727Z,1580
2017-06-14T14:53:08.017Z,1665
2017-06-14T14:53:40.305Z,1735
2017-06-14T14:54:12.599Z,1730
2017-06-14T14:54:44.886Z,1770
2017-06-14T14:55:17.177Z,1770
2017-06-14T14:55:49.463Z,1805
2017-06-14T14:56:21.762Z,1865
2017-06-14T14:56:54.034Z,1790
2017-06-14T14:57:26.386Z,1775
2017-06-14T14:57:58.667Z,1870
2017-06-14T14:58:30.953Z,1850
2017-06-14T14:59:03.241Z,1880
2017-06-14T14:59:35.568Z,1995
2017-06-14T15:00:07.855Z,1995
2017-06-14T15:00:40.152Z,2020
2017-06-14T15:01:12.462Z,1975
2017-06-14T15:01:44.765Z,1935
2017-06-14T15:02:17.043Z,1935
2017-06-14T15:02:49.315Z,1950
2017-06-14T15:03:21.571Z,1935
2017-06-14T15:03:53.823Z,1910
2017-06-14T15:04:26.071Z,1880
2017-06-14T15:04:58.329Z,1835
2017-06-14T15:05:30.617Z,1795
2017-06-14T15:06:02.897Z,1815
2017-06-14T15:06:35.152Z,1825
2017-06-14T15:07:07.397Z,1845
2017-06-14T15:07:39.633Z,1845
2017-06-14T15:08:11.878Z,1880
2017-06-14T15:08:45.036Z,1880
2017-06-14T15:09:18.046Z,1895
2017-06-14T15:09:50.300Z,1850
2017-06-14T15:10:22.574Z,1800
2017-06-14T15:10:54.826Z,1630
2017-06-14T15:11:28.041Z,1695
2017-06-14T15:12:00.295Z,1475
2017-06-14T15:12:32.563Z,1630
2017-06-14T15:13:04.851Z,1625
2017-06-14T15:13:37.143Z,1595
2017-06-14T15:14:09.436Z,1640
2017-06-14T15:14:41.720Z,1665
2017-06-14T15:15:14.008Z,1625
2017-06-14T15:15:46.308Z,1620
2017-06-14T15:16:18.611Z,1550
2017-06-14T15:16:50.900Z,1450
2017-06-14T15:17:23.185Z,1360
2017-06-14T15:17:55.488Z,1145
2017-06-14T15:18:27.827Z,555
2017-06-14T15:19:00.113Z,695
2017-06-14T15:19:32.392Z,1200
2017-06-14T15:20:04.665Z,1200
2017-06-14T15:20:36.919Z,1225
2017-06-14T15:21:09.213Z,1255